createdAt,value
2018-08-22T00:00:19.248Z,0.00
2018-08-22T00:01:19.166Z,0.00
2018-08-22T00:03:11.936Z,0.00
2018-08-22T00:04:11.854Z,0.00
2018-08-22T00:06:04.624Z,0.00
2018-08-22T00:07:04.533Z,0.00
2018-08-22T00:08:57.562Z,0.00
2018-08-22T00:09:57.461Z,0.00
2018-08-22T00:11:50.455Z,0.00
2018-08-22T00:12:50.377Z,0.00
2018-08-22T00:14:43.947Z,0.00
2018-08-22T00:15:43.863Z,0.00
2018-08-22T00:17:36.629Z,0.00
2018-08-22T00:18:36.548Z,0.00
2018-08-22T00:20:29.327Z,0.00
2018-08-22T00:21:29.235Z,0.00
2018-08-22T00:23:22.000Z,0.00
2018-08-22T00:24:21.917Z,0.00
2018-08-22T00:26:14.672Z,0.00
2018-08-22T00:27:14.598Z,0.00
2018-08-22T00:29:07.414Z,0.00
2018-08-22T00:30:07.285Z,0.00
2018-08-22T00:32:00.046Z,0.00
2018-08-22T00:32:59.967Z,0.00
2018-08-22T00:34:54.014Z,0.00
2018-08-22T00:35:53.933Z,0.00
2018-08-22T00:37:46.993Z,0.00
2018-08-22T00:38:46.918Z,0.00
2018-08-22T00:40:39.683Z,0.00
2018-08-22T00:41:39.604Z,0.00
2018-08-22T00:43:32.380Z,0.00
2018-08-22T00:44:32.290Z,0.00
2018-08-22T00:46:25.250Z,0.00
2018-08-22T00:47:25.173Z,0.00
2018-08-22T00:49:17.939Z,0.00
2018-08-22T00:50:17.854Z,0.00
2018-08-22T00:52:10.825Z,0.00
2018-08-22T00:53:10.750Z,0.00
2018-08-22T00:55:03.526Z,0.00
2018-08-22T00:56:03.440Z,0.00
2018-08-22T00:57:56.433Z,0.00
2018-08-22T00:58:56.348Z,0.00
2018-08-22T01:00:49.123Z,0.00
2018-08-22T01:01:49.044Z,0.00
2018-08-22T01:03:41.930Z,0.00
2018-08-22T01:04:41.845Z,0.00
2018-08-22T01:06:34.601Z,0.00
2018-08-22T01:07:34.529Z,0.00
2018-08-22T01:09:27.290Z,0.00
2018-08-22T01:10:27.209Z,0.00
2018-08-22T01:12:19.971Z,0.00
2018-08-22T01:13:19.896Z,0.00
2018-08-22T01:15:12.665Z,0.00
2018-08-22T01:16:12.580Z,0.00
2018-08-22T01:18:05.348Z,0.00
2018-08-22T01:19:05.268Z,0.00
2018-08-22T01:20:58.267Z,0.00
2018-08-22T01:21:58.189Z,0.00
2018-08-22T01:23:51.232Z,0.00
2018-08-22T01:24:51.147Z,0.00
2018-08-22T01:26:44.142Z,0.00
2018-08-22T01:27:44.064Z,0.00
2018-08-22T01:29:36.833Z,0.00
2018-08-22T01:30:36.751Z,0.00
2018-08-22T01:32:29.522Z,0.00
2018-08-22T01:33:29.441Z,0.00
2018-08-22T01:35:22.216Z,0.00
2018-08-22T01:36:22.139Z,0.00
2018-08-22T01:38:14.898Z,0.00
2018-08-22T01:39:14.815Z,0.00
2018-08-22T01:41:07.570Z,0.00
2018-08-22T01:42:07.491Z,0.00
2018-08-22T01:44:00.256Z,0.00
2018-08-22T01:45:00.176Z,0.00
2018-08-22T01:46:52.928Z,0.00
2018-08-22T01:47:52.854Z,0.00
2018-08-22T01:49:45.865Z,0.00
2018-08-22T01:50:45.784Z,0.00
2018-08-22T01:52:38.562Z,0.00
2018-08-22T01:53:38.478Z,0.00
2018-08-22T01:55:31.248Z,0.00
2018-08-22T01:56:31.163Z,0.00
2018-08-22T01:58:23.921Z,0.00
2018-08-22T01:59:23.840Z,0.00
2018-08-22T02:01:16.604Z,0.00
2018-08-22T02:02:16.526Z,0.00
2018-08-22T02:04:09.299Z,0.00
2018-08-22T02:05:09.217Z,0.00
2018-08-22T02:07:01.982Z,0.00
2018-08-22T02:08:01.899Z,0.00
2018-08-22T02:09:54.914Z,0.00
2018-08-22T02:10:54.829Z,0.00
2018-08-22T02:12:47.591Z,0.00
2018-08-22T02:13:47.517Z,0.00
2018-08-22T02:15:40.281Z,0.00
2018-08-22T02:16:40.197Z,0.00
2018-08-22T02:18:32.970Z,0.00
2018-08-22T02:19:32.879Z,0.00
2018-08-22T02:20:32.809Z,0.00
2018-08-22T02:21:32.737Z,0.00
2018-08-22T02:22:32.668Z,0.00
2018-08-22T02:23:32.599Z,0.00
2018-08-22T02:24:32.528Z,0.00
2018-08-22T02:25:32.456Z,0.00
2018-08-22T02:26:32.380Z,0.00
2018-08-22T02:27:32.315Z,0.00
2018-08-22T02:28:32.246Z,0.00
2018-08-22T02:29:32.172Z,0.00
2018-08-22T02:30:32.102Z,0.00
2018-08-22T02:31:32.033Z,0.00
2018-08-22T02:32:31.965Z,0.00
2018-08-22T02:33:31.889Z,0.00
2018-08-22T02:34:31.818Z,0.00
2018-08-22T02:35:31.763Z,0.00
2018-08-22T02:36:31.680Z,0.00
2018-08-22T02:37:31.606Z,0.00
2018-08-22T02:38:31.535Z,0.00
2018-08-22T02:39:31.468Z,0.00
2018-08-22T02:40:31.395Z,0.00
2018-08-22T02:41:31.325Z,0.00
2018-08-22T02:42:31.252Z,0.00
2018-08-22T02:43:31.180Z,0.00
2018-08-22T02:44:31.110Z,0.00
2018-08-22T02:45:31.045Z,0.00
2018-08-22T02:46:30.965Z,0.00
2018-08-22T02:47:30.905Z,0.00
2018-08-22T02:48:30.827Z,0.00
2018-08-22T02:49:30.757Z,0.00
2018-08-22T02:50:30.687Z,0.00
2018-08-22T02:51:30.642Z,0.00
2018-08-22T02:52:30.544Z,0.00
2018-08-22T02:53:30.475Z,0.00
2018-08-22T02:54:30.403Z,0.00
2018-08-22T02:55:30.333Z,0.00
2018-08-22T02:56:30.259Z,0.00
2018-08-22T02:57:30.189Z,0.00
2018-08-22T02:58:30.122Z,0.00
2018-08-22T02:59:30.047Z,0.00
2018-08-22T03:00:29.984Z,0.00
2018-08-22T03:01:29.904Z,0.00
2018-08-22T03:02:29.833Z,0.00
2018-08-22T03:03:29.762Z,0.00
2018-08-22T03:04:29.694Z,0.00
2018-08-22T03:05:29.619Z,0.00
2018-08-22T03:06:29.552Z,0.00
2018-08-22T03:07:29.482Z,0.00
2018-08-22T03:08:29.409Z,0.00
2018-08-22T03:09:29.338Z,0.00
2018-08-22T03:10:29.269Z,0.00
2018-08-22T03:11:29.196Z,0.00
2018-08-22T03:12:29.124Z,0.00
2018-08-22T03:13:29.054Z,0.00
2018-08-22T03:14:28.982Z,0.00
2018-08-22T03:15:28.918Z,0.00
2018-08-22T03:16:28.850Z,0.00
2018-08-22T03:17:28.771Z,0.00
2018-08-22T03:18:28.699Z,0.00
2018-08-22T03:19:28.629Z,0.00
2018-08-22T03:20:28.557Z,0.00
2018-08-22T03:21:28.484Z,0.00
2018-08-22T03:22:28.418Z,0.00
2018-08-22T03:23:28.343Z,0.00
2018-08-22T03:24:28.281Z,0.00
2018-08-22T03:25:28.203Z,0.00
2018-08-22T03:26:28.143Z,0.00
2018-08-22T03:27:28.065Z,0.00
2018-08-22T03:28:27.989Z,0.00
2018-08-22T03:29:27.916Z,0.00
2018-08-22T03:30:27.841Z,0.00
2018-08-22T03:31:27.778Z,0.00
2018-08-22T03:32:27.710Z,0.00
2018-08-22T03:33:27.637Z,0.00
2018-08-22T03:34:27.563Z,0.00
2018-08-22T03:35:27.491Z,0.00
2018-08-22T03:36:27.418Z,0.00
2018-08-22T03:37:27.348Z,0.00
2018-08-22T03:38:27.279Z,0.00
2018-08-22T03:39:27.214Z,0.00
2018-08-22T03:40:27.133Z,0.00
2018-08-22T03:41:27.062Z,0.00
2018-08-22T03:42:26.992Z,0.00
2018-08-22T03:43:26.922Z,0.00
2018-08-22T03:44:26.849Z,0.00
2018-08-22T03:45:26.774Z,0.00
2018-08-22T03:46:26.708Z,0.00
2018-08-22T03:47:26.639Z,0.00
2018-08-22T03:48:26.567Z,0.00
2018-08-22T03:49:26.494Z,0.00
2018-08-22T03:50:26.423Z,0.00
2018-08-22T03:51:26.354Z,0.00
2018-08-22T03:52:26.284Z,0.00
2018-08-22T03:53:26.214Z,0.00
2018-08-22T03:54:26.143Z,0.00
2018-08-22T03:55:26.065Z,0.00
2018-08-22T03:56:25.996Z,0.00
2018-08-22T03:57:25.924Z,0.00
2018-08-22T03:58:25.865Z,0.00
2018-08-22T03:59:25.789Z,0.00
2018-08-22T04:00:25.710Z,0.00
2018-08-22T04:01:25.639Z,0.00
2018-08-22T04:02:25.569Z,4.00
2018-08-22T04:03:25.497Z,4.00
2018-08-22T04:04:25.438Z,0.00
2018-08-22T04:05:25.356Z,4.00
2018-08-22T04:06:25.286Z,4.00
2018-08-22T04:07:25.212Z,4.00
2018-08-22T04:08:25.141Z,4.00
2018-08-22T04:09:25.071Z,4.00
2018-08-22T04:10:24.999Z,8.00
2018-08-22T04:11:24.927Z,8.00
2018-08-22T04:12:24.857Z,8.00
2018-08-22T04:13:24.784Z,8.00
2018-08-22T04:14:24.714Z,16.00
2018-08-22T04:15:24.647Z,12.00
2018-08-22T04:16:24.573Z,16.00
2018-08-22T04:17:24.500Z,20.00
2018-08-22T04:18:24.430Z,20.00
2018-08-22T04:19:24.359Z,28.00
2018-08-22T04:20:24.284Z,28.00
2018-08-22T04:21:24.214Z,32.00
2018-08-22T04:22:24.144Z,36.00
2018-08-22T04:23:24.073Z,44.00
2018-08-22T04:24:24.027Z,48.00
2018-08-22T04:25:23.933Z,56.00
2018-08-22T04:26:23.858Z,60.00
2018-08-22T04:27:23.786Z,64.00
2018-08-22T04:28:23.715Z,72.00
2018-08-22T04:29:23.645Z,76.00
2018-08-22T04:30:23.574Z,80.00
2018-08-22T04:31:23.502Z,88.00
2018-08-22T04:32:23.451Z,96.00
2018-08-22T04:33:23.362Z,104.00
2018-08-22T04:34:23.291Z,112.00
2018-08-22T04:35:23.218Z,120.00
2018-08-22T04:36:23.146Z,132.00
2018-08-22T04:37:23.096Z,144.00
2018-08-22T04:38:23.000Z,148.00
2018-08-22T04:39:22.931Z,160.00
2018-08-22T04:40:22.858Z,172.00
2018-08-22T04:41:22.790Z,184.00
2018-08-22T04:42:22.717Z,196.00
2018-08-22T04:43:22.656Z,204.00
2018-08-22T04:44:22.569Z,216.00
2018-08-22T04:45:22.508Z,228.00
2018-08-22T04:46:22.436Z,240.00
2018-08-22T04:47:22.361Z,252.00
2018-08-22T04:48:22.290Z,264.00
2018-08-22T04:49:22.218Z,276.00
2018-08-22T04:50:22.148Z,288.00
2018-08-22T04:51:22.075Z,300.00
2018-08-22T04:52:22.003Z,312.00
2018-08-22T04:53:21.939Z,328.00
2018-08-22T04:54:21.861Z,344.00
2018-08-22T04:55:21.793Z,352.00
2018-08-22T04:56:21.720Z,368.00
2018-08-22T04:57:21.648Z,380.00
2018-08-22T04:58:21.588Z,392.00
2018-08-22T04:59:21.519Z,400.00
2018-08-22T05:00:21.432Z,412.00
2018-08-22T05:01:21.370Z,424.00
2018-08-22T05:02:21.293Z,440.00
2018-08-22T05:03:21.220Z,456.00
2018-08-22T05:04:21.152Z,468.00
2018-08-22T05:05:21.078Z,484.00
2018-08-22T05:06:21.011Z,496.00
2018-08-22T05:07:20.935Z,508.00
2018-08-22T05:08:20.867Z,524.00
2018-08-22T05:09:20.850Z,540.00
2018-08-22T05:10:20.743Z,552.00
2018-08-22T05:11:20.649Z,568.00
2018-08-22T05:12:20.577Z,576.00
2018-08-22T05:13:20.506Z,588.00
2018-08-22T05:14:20.439Z,600.00
2018-08-22T05:15:20.364Z,616.00
2018-08-22T05:16:20.291Z,632.00
2018-08-22T05:17:20.219Z,648.00
2018-08-22T05:18:20.150Z,660.00
2018-08-22T05:19:20.082Z,676.00
2018-08-22T05:20:20.003Z,700.00
2018-08-22T05:21:19.937Z,712.00
2018-08-22T05:22:19.866Z,732.00
2018-08-22T05:23:19.790Z,744.00
2018-08-22T05:24:19.720Z,764.00
2018-08-22T05:25:19.648Z,784.00
2018-08-22T05:26:19.580Z,800.00
2018-08-22T05:27:19.521Z,816.00
2018-08-22T05:28:19.435Z,836.00
2018-08-22T05:29:19.367Z,852.00
2018-08-22T05:30:19.364Z,868.00
2018-08-22T05:31:19.221Z,884.00
2018-08-22T05:32:19.150Z,904.00
2018-08-22T05:33:19.087Z,920.00
2018-08-22T05:34:19.011Z,932.00
2018-08-22T05:35:18.938Z,948.00
2018-08-22T05:36:18.866Z,964.00
2018-08-22T05:37:18.799Z,972.00
2018-08-22T05:38:18.722Z,984.00
2018-08-22T05:39:18.656Z,1000.00
2018-08-22T05:40:18.577Z,1012.00
2018-08-22T05:41:18.511Z,1020.00
2018-08-22T05:42:18.435Z,1028.00
2018-08-22T05:43:18.368Z,1028.00
2018-08-22T05:44:18.295Z,1040.00
2018-08-22T05:45:18.225Z,1048.00
2018-08-22T05:46:18.154Z,1060.00
2018-08-22T05:47:18.086Z,1068.00
2018-08-22T05:48:18.009Z,1080.00
2018-08-22T05:49:18.019Z,1096.00
2018-08-22T05:50:17.868Z,1104.00
2018-08-22T05:51:17.793Z,1124.00
2018-08-22T05:52:17.733Z,1136.00
2018-08-22T05:53:17.656Z,1144.00
2018-08-22T05:54:17.579Z,1156.00
2018-08-22T05:55:17.514Z,1164.00
2018-08-22T05:56:17.444Z,1172.00
2018-08-22T05:57:17.371Z,1180.00
2018-08-22T05:58:17.301Z,1188.00
2018-08-22T05:59:17.226Z,1192.00
2018-08-22T06:00:17.162Z,1196.00
2018-08-22T06:01:17.094Z,1184.00
2018-08-22T06:02:17.017Z,1200.00
2018-08-22T06:03:16.989Z,1220.00
2018-08-22T06:04:16.875Z,1228.00
2018-08-22T06:05:16.805Z,1236.00
2018-08-22T06:06:16.736Z,1244.00
2018-08-22T06:07:16.664Z,1252.00
2018-08-22T06:08:16.595Z,1256.00
2018-08-22T06:09:16.551Z,1264.00
2018-08-22T06:10:16.458Z,1272.00
2018-08-22T06:11:16.412Z,1276.00
2018-08-22T06:12:16.312Z,1284.00
2018-08-22T06:13:16.238Z,1296.00
2018-08-22T06:14:16.172Z,1308.00
2018-08-22T06:15:16.100Z,1332.00
2018-08-22T06:16:16.026Z,1316.00
2018-08-22T06:17:15.956Z,1336.00
2018-08-22T06:18:15.888Z,1384.00
2018-08-22T06:19:15.817Z,1424.00
2018-08-22T06:20:15.749Z,1456.00
2018-08-22T06:21:15.673Z,1460.00
2018-08-22T06:22:15.603Z,1456.00
2018-08-22T06:23:15.532Z,1500.00
2018-08-22T06:24:15.464Z,1524.00
2018-08-22T06:25:15.393Z,1544.00
2018-08-22T06:26:15.322Z,1576.00
2018-08-22T06:27:15.253Z,1656.00
2018-08-22T06:28:15.179Z,1692.00
2018-08-22T06:29:15.108Z,1712.00
2018-08-22T06:30:15.040Z,1732.00
2018-08-22T06:31:14.968Z,1752.00
2018-08-22T06:32:14.898Z,1768.00
2018-08-22T06:33:14.828Z,1788.00
2018-08-22T06:34:14.757Z,1788.00
2018-08-22T06:35:14.692Z,1800.00
2018-08-22T06:36:14.616Z,1800.00
2018-08-22T06:37:14.548Z,1804.00
2018-08-22T06:38:14.476Z,1828.00
2018-08-22T06:39:14.407Z,1856.00
2018-08-22T06:40:14.337Z,1908.00
2018-08-22T06:41:14.267Z,1944.00
2018-08-22T06:42:14.197Z,1956.00
2018-08-22T06:43:14.127Z,1956.00
2018-08-22T06:44:14.115Z,1952.00
2018-08-22T06:45:13.987Z,1944.00
2018-08-22T06:46:13.914Z,1944.00
2018-08-22T06:47:13.844Z,1956.00
2018-08-22T06:48:13.774Z,1972.00
2018-08-22T06:49:13.706Z,1996.00
2018-08-22T06:50:13.658Z,2000.00
2018-08-22T06:51:13.566Z,2000.00
2018-08-22T06:52:13.494Z,2012.00
2018-08-22T06:53:13.425Z,2048.00
2018-08-22T06:54:13.358Z,2072.00
2018-08-22T06:55:13.289Z,2112.00
2018-08-22T06:56:13.218Z,2172.00
2018-08-22T06:57:13.255Z,2216.00
2018-08-22T06:58:13.074Z,2236.00
2018-08-22T06:59:13.008Z,2236.00
2018-08-22T07:00:12.935Z,2212.00
2018-08-22T07:01:12.867Z,2164.00
2018-08-22T07:02:12.796Z,2064.00
2018-08-22T07:03:12.728Z,2068.00
2018-08-22T07:04:12.659Z,2052.00
2018-08-22T07:05:12.587Z,2040.00
2018-08-22T07:06:12.517Z,2036.00
2018-08-22T07:07:12.448Z,2048.00
2018-08-22T07:08:12.505Z,2088.00
2018-08-22T07:09:12.308Z,2128.00
2018-08-22T07:10:12.242Z,2104.00
2018-08-22T07:11:12.170Z,2084.00
2018-08-22T07:12:12.101Z,2092.00
2018-08-22T07:13:12.033Z,2084.00
2018-08-22T07:14:12.003Z,2076.00
2018-08-22T07:15:11.895Z,2128.00
2018-08-22T07:16:11.822Z,2148.00
2018-08-22T07:17:11.762Z,2208.00
2018-08-22T07:18:11.683Z,2288.00
2018-08-22T07:19:11.615Z,2380.00
2018-08-22T07:20:11.546Z,2456.00
2018-08-22T07:21:11.476Z,2468.00
2018-08-22T07:22:11.409Z,2500.00
2018-08-22T07:23:11.338Z,2560.00
2018-08-22T07:24:11.268Z,2616.00
2018-08-22T07:25:11.199Z,2644.00
2018-08-22T07:26:11.131Z,2660.00
2018-08-22T07:27:11.062Z,2684.00
2018-08-22T07:28:10.993Z,2660.00
2018-08-22T07:29:10.927Z,2640.00
2018-08-22T07:30:11.008Z,2576.00
2018-08-22T07:31:10.787Z,2508.00
2018-08-22T07:32:10.769Z,2452.00
2018-08-22T07:33:10.645Z,2476.00
2018-08-22T07:34:10.578Z,2512.00
2018-08-22T07:35:10.512Z,2516.00
2018-08-22T07:36:10.441Z,2560.00
2018-08-22T07:37:10.370Z,2628.00
2018-08-22T07:38:10.302Z,2676.00
2018-08-22T07:39:10.255Z,2708.00
2018-08-22T07:40:10.163Z,2688.00
2018-08-22T07:41:10.100Z,2520.00
2018-08-22T07:42:10.025Z,2436.00
2018-08-22T07:43:09.960Z,2524.00
2018-08-22T07:44:09.890Z,2528.00
2018-08-22T07:45:09.820Z,2520.00
2018-08-22T07:46:09.752Z,2500.00
2018-08-22T07:47:09.687Z,2512.00
2018-08-22T07:48:09.612Z,2480.00
2018-08-22T07:49:09.571Z,2464.00
2018-08-22T07:50:09.537Z,2476.00
2018-08-22T07:51:09.409Z,2492.00
2018-08-22T07:52:09.337Z,2488.00
2018-08-22T07:53:09.290Z,2540.00
2018-08-22T07:54:09.206Z,2568.00
2018-08-22T07:55:09.133Z,2560.00
2018-08-22T07:56:09.063Z,2560.00
2018-08-22T07:57:08.996Z,2532.00
2018-08-22T07:58:08.928Z,2456.00
2018-08-22T07:59:08.862Z,2440.00
2018-08-22T08:00:09.085Z,2500.00
2018-08-22T08:01:08.952Z,2592.00
2018-08-22T08:02:08.654Z,2672.00
2018-08-22T08:03:08.584Z,2800.00
2018-08-22T08:04:08.514Z,2904.00
2018-08-22T08:05:08.446Z,3012.00
2018-08-22T08:06:08.377Z,3132.00
2018-08-22T08:07:08.308Z,3312.00
2018-08-22T08:08:09.537Z,3308.00
2018-08-22T08:10:08.117Z,3432.00
2018-08-22T08:11:08.038Z,3476.00
2018-08-22T08:12:07.968Z,3616.00
2018-08-22T08:13:07.901Z,3548.00
2018-08-22T08:14:07.833Z,3736.00
2018-08-22T08:15:07.764Z,3940.00
2018-08-22T08:16:07.693Z,4256.00
2018-08-22T08:17:07.686Z,3716.00
2018-08-22T08:18:07.568Z,3540.00
2018-08-22T08:19:07.489Z,3592.00
2018-08-22T08:20:07.423Z,3656.00
2018-08-22T08:21:07.363Z,3676.00
2018-08-22T08:22:07.287Z,3804.00
2018-08-22T08:23:07.215Z,3880.00
2018-08-22T08:24:07.152Z,3892.00
2018-08-22T08:25:07.084Z,4024.00
2018-08-22T08:26:07.034Z,4036.00
2018-08-22T08:27:06.952Z,4116.00
2018-08-22T08:28:06.884Z,4192.00
2018-08-22T08:29:06.812Z,4228.00
2018-08-22T08:30:06.749Z,4160.00
2018-08-22T08:31:06.681Z,4392.00
2018-08-22T08:32:06.609Z,4252.00
2018-08-22T08:33:06.541Z,4164.00
2018-08-22T08:34:06.482Z,4364.00
2018-08-22T08:35:06.419Z,4436.00
2018-08-22T08:36:06.381Z,4352.00
2018-08-22T08:37:06.271Z,4492.00
2018-08-22T08:38:06.211Z,4500.00
2018-08-22T08:39:06.141Z,4536.00
2018-08-22T08:40:06.072Z,4772.00
2018-08-22T08:41:06.001Z,4836.00
2018-08-22T08:42:05.938Z,5120.00
2018-08-22T08:43:05.868Z,4364.00
2018-08-22T08:44:05.803Z,4164.00
2018-08-22T08:45:05.734Z,4212.00
2018-08-22T08:46:05.670Z,4264.00
2018-08-22T08:47:05.603Z,4468.00
2018-08-22T08:48:05.534Z,5044.00
2018-08-22T08:49:05.468Z,5160.00
2018-08-22T08:50:05.401Z,6276.00
2018-08-22T08:51:05.335Z,7060.00
2018-08-22T08:52:05.292Z,7384.00
2018-08-22T08:53:05.219Z,6480.00
2018-08-22T08:54:05.135Z,6316.00
2018-08-22T08:55:05.064Z,7120.00
2018-08-22T08:56:04.998Z,9744.00
2018-08-22T08:57:04.965Z,11756.00
2018-08-22T08:58:04.869Z,10596.00
2018-08-22T08:59:04.847Z,11472.00
2018-08-22T09:00:04.735Z,11232.00
2018-08-22T09:01:04.664Z,9568.00
2018-08-22T09:02:04.611Z,9220.00
2018-08-22T09:03:04.532Z,9724.00
2018-08-22T09:04:04.587Z,7320.00
2018-08-22T09:05:04.428Z,6940.00
2018-08-22T09:06:04.336Z,7684.00
2018-08-22T09:07:04.268Z,8748.00
2018-08-22T09:08:04.200Z,11440.00
2018-08-22T09:09:04.136Z,15616.00
2018-08-22T09:10:04.085Z,23648.00
2018-08-22T09:11:04.006Z,22176.00
2018-08-22T09:12:03.948Z,16576.00
2018-08-22T09:13:03.873Z,17792.00
2018-08-22T09:14:03.807Z,17856.00
2018-08-22T09:15:03.744Z,10356.00
2018-08-22T09:16:03.676Z,8184.00
2018-08-22T09:17:03.611Z,8080.00
2018-08-22T09:18:03.547Z,17408.00
2018-08-22T09:19:03.482Z,27456.00
2018-08-22T09:20:03.424Z,21120.00
2018-08-22T09:21:03.363Z,22816.00
2018-08-22T09:22:03.294Z,17344.00
2018-08-22T09:23:03.226Z,16928.00
2018-08-22T09:24:03.192Z,46400.00
2018-08-22T09:25:03.108Z,52480.00
2018-08-22T09:31:29.223Z,61888.00
2018-08-22T09:32:29.143Z,59424.00
2018-08-22T09:34:21.955Z,61312.00
2018-08-22T09:35:21.904Z,62400.00
2018-08-22T09:37:14.638Z,60704.00
2018-08-22T09:38:14.573Z,61984.00
2018-08-22T09:40:07.400Z,62048.00
2018-08-22T09:41:07.292Z,62400.00
2018-08-22T09:43:00.074Z,56768.00
2018-08-22T09:44:00.004Z,58432.00
2018-08-22T09:45:52.793Z,57856.00
2018-08-22T09:46:52.867Z,61568.00
2018-08-22T09:48:46.284Z,59744.00
2018-08-22T09:49:46.209Z,57376.00
2018-08-22T09:51:38.993Z,57600.00
2018-08-22T09:52:38.950Z,64864.00
2018-08-22T09:54:31.739Z,24544.00
2018-08-22T09:55:31.654Z,11652.00
2018-08-22T09:57:24.444Z,22304.00
2018-08-22T09:58:24.378Z,14528.00
2018-08-22T10:00:17.249Z,6440.00
2018-08-22T10:01:17.101Z,8088.00
2018-08-22T10:03:10.090Z,19392.00
2018-08-22T10:04:10.020Z,19712.00
2018-08-22T10:06:02.807Z,60448.00
2018-08-22T10:07:02.796Z,56416.00
2018-08-22T10:08:55.541Z,38720.00
2018-08-22T10:09:55.517Z,14016.00
2018-08-22T10:11:48.502Z,25728.00
2018-08-22T10:12:48.444Z,37440.00
2018-08-22T10:14:41.242Z,16672.00
2018-08-22T10:15:41.154Z,12180.00
2018-08-22T10:17:33.937Z,22048.00
2018-08-22T10:18:33.872Z,9896.00
2018-08-22T10:20:26.667Z,36224.00
2018-08-22T10:21:26.593Z,24512.00
2018-08-22T10:23:19.591Z,17504.00
2018-08-22T10:24:19.557Z,36384.00
2018-08-22T10:26:12.300Z,55488.00
2018-08-22T10:27:12.234Z,41152.00
2018-08-22T10:29:05.028Z,38048.00
2018-08-22T10:30:04.956Z,35232.00
2018-08-22T10:31:57.745Z,5736.00
2018-08-22T10:32:57.732Z,4584.00
2018-08-22T10:34:50.701Z,4832.00
2018-08-22T10:35:50.627Z,4280.00
2018-08-22T10:37:43.698Z,4152.00
2018-08-22T10:38:43.632Z,4104.00
2018-08-22T10:40:36.430Z,4080.00
2018-08-22T10:41:36.357Z,4092.00
2018-08-22T10:43:29.150Z,4112.00
2018-08-22T10:44:29.133Z,4252.00
2018-08-22T10:46:21.848Z,4120.00
2018-08-22T10:47:21.780Z,4192.00
2018-08-22T10:49:15.062Z,4064.00
2018-08-22T10:50:14.990Z,4084.00
2018-08-22T10:52:07.776Z,4172.00
2018-08-22T10:53:07.711Z,4212.00
2018-08-22T10:55:00.509Z,4300.00
2018-08-22T10:56:00.424Z,4376.00
2018-08-22T10:57:53.195Z,4332.00
2018-08-22T10:58:53.127Z,4356.00
2018-08-22T11:00:46.277Z,4492.00
2018-08-22T11:01:46.212Z,4444.00
2018-08-22T11:03:38.989Z,4416.00
2018-08-22T11:04:38.914Z,4444.00
2018-08-22T11:06:31.690Z,4452.00
2018-08-22T11:07:31.622Z,4444.00
2018-08-22T11:09:24.400Z,4408.00
2018-08-22T11:10:24.325Z,4416.00
2018-08-22T11:12:17.093Z,4424.00
2018-08-22T11:13:17.027Z,4416.00
2018-08-22T11:15:10.012Z,5128.00
2018-08-22T11:16:10.035Z,6884.00
2018-08-22T11:18:02.719Z,4656.00
2018-08-22T11:19:02.647Z,4640.00
2018-08-22T11:20:55.444Z,4568.00
2018-08-22T11:21:55.363Z,5444.00
2018-08-22T11:23:48.387Z,7244.00
2018-08-22T11:24:48.312Z,12580.00
2018-08-22T11:26:41.137Z,10272.00
2018-08-22T11:27:41.017Z,11648.00
2018-08-22T11:29:33.799Z,8172.00
2018-08-22T11:30:33.728Z,8124.00
2018-08-22T11:32:26.505Z,6088.00
2018-08-22T11:33:26.430Z,5236.00
2018-08-22T11:35:19.218Z,5792.00
2018-08-22T11:36:19.140Z,8872.00
2018-08-22T11:38:12.116Z,31040.00
2018-08-22T11:39:12.047Z,26048.00
2018-08-22T11:41:04.834Z,6756.00
2018-08-22T11:42:04.759Z,5320.00
2018-08-22T11:43:57.540Z,5372.00
2018-08-22T11:44:57.465Z,5576.00
2018-08-22T11:46:50.283Z,5280.00
2018-08-22T11:47:50.175Z,5308.00
2018-08-22T11:49:42.960Z,8420.00
2018-08-22T11:50:42.881Z,7568.00
2018-08-22T11:52:35.667Z,5064.00
2018-08-22T11:53:35.601Z,5688.00
2018-08-22T11:55:28.385Z,5564.00
2018-08-22T11:56:28.310Z,6104.00
2018-08-22T11:58:21.083Z,5236.00
2018-08-22T11:59:21.012Z,5672.00
2018-08-22T12:01:13.805Z,5548.00
2018-08-22T12:02:13.730Z,5724.00
2018-08-22T12:04:06.513Z,5676.00
2018-08-22T12:05:06.433Z,8988.00
2018-08-22T12:06:59.422Z,5340.00
2018-08-22T12:07:59.345Z,5596.00
2018-08-22T12:09:52.360Z,6760.00
2018-08-22T12:10:52.292Z,5648.00
2018-08-22T12:12:45.305Z,10412.00
2018-08-22T12:13:45.237Z,9508.00
2018-08-22T12:15:38.018Z,12708.00
2018-08-22T12:16:37.943Z,9636.00
2018-08-22T12:18:30.712Z,6464.00
2018-08-22T12:19:30.647Z,9952.00
2018-08-22T12:21:23.430Z,7460.00
2018-08-22T12:22:23.354Z,6132.00
2018-08-22T12:24:16.150Z,5856.00
2018-08-22T12:25:16.056Z,5700.00
2018-08-22T12:27:08.831Z,10460.00
2018-08-22T12:28:08.761Z,7496.00
2018-08-22T12:30:01.546Z,7616.00
2018-08-22T12:31:01.472Z,12164.00
2018-08-22T12:32:54.241Z,6584.00
2018-08-22T12:33:54.172Z,5800.00
2018-08-22T12:35:47.206Z,5788.00
2018-08-22T12:36:47.132Z,5848.00
2018-08-22T12:38:39.907Z,5744.00
2018-08-22T12:39:39.839Z,5800.00
2018-08-22T12:41:32.614Z,5916.00
2018-08-22T12:42:32.537Z,5956.00
2018-08-22T12:44:25.342Z,5880.00
2018-08-22T12:45:25.247Z,5888.00
2018-08-22T12:47:18.030Z,5808.00
2018-08-22T12:48:17.953Z,5912.00
2018-08-22T12:50:10.739Z,5964.00
2018-08-22T12:51:10.658Z,5972.00
2018-08-22T12:53:03.643Z,6012.00
2018-08-22T12:54:03.571Z,6000.00
2018-08-22T12:55:56.353Z,6036.00
2018-08-22T12:56:56.282Z,6108.00
2018-08-22T12:58:56.606Z,6248.00
2018-08-22T12:59:49.249Z,6336.00
2018-08-22T13:01:42.809Z,6400.00
2018-08-22T13:02:42.727Z,6300.00
2018-08-22T13:04:35.563Z,6420.00
2018-08-22T13:05:35.434Z,6268.00
2018-08-22T13:07:28.214Z,6372.00
2018-08-22T13:08:28.153Z,6336.00
2018-08-22T13:10:20.931Z,6488.00
2018-08-22T13:11:20.858Z,6528.00
2018-08-22T13:13:13.641Z,8864.00
2018-08-22T13:14:13.558Z,11584.00
2018-08-22T13:16:06.348Z,13632.00
2018-08-22T13:17:06.322Z,53728.00
2018-08-22T13:18:59.050Z,23232.00
2018-08-22T13:19:58.972Z,20320.00
2018-08-22T13:21:52.003Z,8164.00
2018-08-22T13:22:51.917Z,20992.00
2018-08-22T13:24:44.728Z,48416.00
2018-08-22T13:25:44.627Z,54656.00
2018-08-22T13:27:37.621Z,53472.00
2018-08-22T13:28:37.548Z,19680.00
2018-08-22T13:30:30.484Z,37536.00
2018-08-22T13:31:30.264Z,49248.00
2018-08-22T13:33:23.078Z,49472.00
2018-08-22T13:34:23.015Z,43520.00
2018-08-22T13:36:15.839Z,11280.00
2018-08-22T13:37:15.726Z,9196.00
2018-08-22T13:39:08.717Z,7964.00
2018-08-22T13:40:08.654Z,9060.00
2018-08-22T13:42:01.448Z,9336.00
2018-08-22T13:43:01.375Z,8788.00
2018-08-22T13:44:54.158Z,8112.00
2018-08-22T13:45:54.085Z,8152.00
2018-08-22T13:47:47.120Z,8216.00
2018-08-22T13:48:47.046Z,8208.00
2018-08-22T13:50:39.850Z,8120.00
2018-08-22T13:51:39.760Z,8176.00
2018-08-22T13:53:32.547Z,8556.00
2018-08-22T13:54:32.481Z,8368.00
2018-08-22T13:56:25.348Z,9424.00
2018-08-22T13:57:25.214Z,8888.00
2018-08-22T13:59:18.197Z,10580.00
2018-08-22T14:00:18.128Z,9840.00
2018-08-22T14:02:10.914Z,9044.00
2018-08-22T14:03:10.837Z,9108.00
2018-08-22T14:05:03.648Z,9272.00
2018-08-22T14:06:03.559Z,8740.00
2018-08-22T14:07:56.330Z,14320.00
2018-08-22T14:08:56.264Z,10444.00
2018-08-22T14:10:49.286Z,8992.00
2018-08-22T14:11:49.212Z,10576.00
2018-08-22T14:13:42.290Z,29408.00
2018-08-22T14:14:42.221Z,10956.00
2018-08-22T14:16:35.005Z,36320.00
2018-08-22T14:17:34.929Z,44544.00
2018-08-22T14:19:27.711Z,43104.00
2018-08-22T14:20:27.648Z,42912.00
2018-08-22T14:22:20.450Z,40448.00
2018-08-22T14:23:20.363Z,41024.00
2018-08-22T14:25:13.159Z,37824.00
2018-08-22T14:26:13.072Z,39904.00
2018-08-22T14:28:05.880Z,41504.00
2018-08-22T14:29:05.789Z,39808.00
2018-08-22T14:30:58.610Z,40576.00
2018-08-22T14:31:58.561Z,40512.00
2018-08-22T14:33:51.417Z,41504.00
2018-08-22T14:34:51.258Z,42080.00
2018-08-22T14:36:44.670Z,40896.00
2018-08-22T14:37:44.598Z,40640.00
2018-08-22T14:39:37.384Z,43040.00
2018-08-22T14:40:37.338Z,42496.00
2018-08-22T14:42:30.120Z,41472.00
2018-08-22T14:43:30.053Z,40800.00
2018-08-22T14:45:22.866Z,39392.00
2018-08-22T14:46:22.787Z,39232.00
2018-08-22T14:48:15.576Z,38112.00
2018-08-22T14:49:15.517Z,37216.00